Time;durP1;ratioP1;P1;durP2;ratioP2;P2;SDS_P1;SDS_P2;PMS_P1;PMS_P2;Temp;Humidity;BMP_temperature;BMP_pressure;BME280_temperature;BME280_humidity;BME280_pressure;Samples;Min_cycle;Max_cycle;Signal;HPM_P1;HPM_P2
2023/05/15 00:02:17;;;;;;;38.28;32.10;;;11.50;99.90;;;;;;5045760;28;20048;-85
2023/05/15 00:04:43;;;;;;;40.55;32.67;;;11.50;99.90;;;;;;5040424;28;20052;-86
2023/05/15 00:07:09;;;;;;;39.05;31.42;;;11.40;99.90;;;;;;5045985;28;20043;-85
2023/05/15 00:09:34;;;;;;;36.35;30.63;;;11.40;99.90;;;;;;5042944;28;20420;-85
2023/05/15 00:12:00;;;;;;;34.88;31.15;;;11.40;99.90;;;;;;5049934;28;20040;-86
2023/05/15 00:14:25;;;;;;;34.00;30.30;;;11.30;99.90;;;;;;5040424;28;21478;-86
2023/05/15 00:16:51;;;;;;;35.83;30.00;;;11.40;99.90;;;;;;5048672;28;20471;-84
2023/05/15 00:19:16;;;;;;;50.45;32.03;;;11.30;99.90;;;;;;5045412;28;20053;-85
2023/05/15 00:21:42;;;;;;;41.58;33.20;;;11.30;99.90;;;;;;5041284;28;20045;-85
2023/05/15 00:24:07;;;;;;;34.13;30.42;;;11.20;99.90;;;;;;5022255;28;20037;-86
2023/05/15 00:26:33;;;;;;;36.20;31.10;;;11.20;99.90;;;;;;5027717;28;20041;-86
2023/05/15 00:28:59;;;;;;;34.63;29.83;;;11.20;99.90;;;;;;5026006;28;20144;-86
2023/05/15 00:31:25;;;;;;;34.10;29.33;;;11.20;99.90;;;;;;5037803;28;20187;-86
2023/05/15 00:33:50;;;;;;;36.22;29.88;;;11.20;99.90;;;;;;5044056;28;20051;-85
2023/05/15 00:36:16;;;;;;;37.00;29.80;;;11.30;99.90;;;;;;5045915;28;20041;-85
2023/05/15 00:38:42;;;;;;;36.83;31.02;;;11.20;99.90;;;;;;5043583;28;20132;-86
2023/05/15 00:41:09;;;;;;;34.58;30.50;;;11.30;99.90;;;;;;5024399;28;20060;-85
2023/05/15 00:43:37;;;;;;;35.15;31.33;;;11.30;99.90;;;;;;5040642;28;20040;-86
2023/05/15 00:46:03;;;;;;;38.13;30.27;;;11.20;99.90;;;;;;5047587;28;20068;-85
2023/05/15 00:48:31;;;;;;;38.00;31.15;;;11.20;99.90;;;;;;5043381;28;20038;-85
2023/05/15 00:50:58;;;;;;;35.90;29.38;;;11.20;99.90;;;;;;5044396;28;20048;-86
2023/05/15 00:53:27;;;;;;;48.60;30.17;;;11.20;99.90;;;;;;5046476;28;20072;-83
2023/05/15 00:55:58;;;;;;;39.17;31.73;;;11.20;99.90;;;;;;5029690;28;20115;-85
2023/05/15 00:58:26;;;;;;;39.83;28.35;;;11.20;99.90;;;;;;5043190;28;20510;-86
2023/05/15 01:00:52;;;;;;;40.95;30.45;;;11.10;99.90;;;;;;5046507;28;20111;-85
2023/05/15 01:03:17;;;;;;;51.63;28.60;;;11.10;99.90;;;;;;5044547;28;20068;-85
2023/05/15 01:05:43;;;;;;;34.65;30.00;;;11.10;99.90;;;;;;5045107;28;20775;-85
2023/05/15 01:08:25;;;;;;;30.63;27.33;;;11.00;99.90;;;;;;5045987;28;20040;-85
2023/05/15 01:10:51;;;;;;;35.40;30.40;;;11.00;99.90;;;;;;5049294;28;20037;-85
2023/05/15 01:13:20;;;;;;;33.67;30.10;;;10.90;99.90;;;;;;5043456;28;20094;-84
2023/05/15 01:15:47;;;;;;;32.45;29.17;;;11.00;99.90;;;;;;5041979;28;20038;-86
2023/05/15 01:18:13;;;;;;;31.13;27.83;;;11.00;99.90;;;;;;5025879;28;20101;-86
2023/05/15 01:20:56;;;;;;;33.95;29.55;;;11.00;99.90;;;;;;5043507;28;20123;-86
2023/05/15 01:24:00;;;;;;;36.95;31.05;;;11.00;99.90;;;;;;5023317;28;20068;-86
2023/05/15 01:26:41;;;;;;;46.63;30.15;;;11.00;99.90;;;;;;5045463;28;20419;-86
2023/05/15 01:29:16;;;;;;;44.70;30.10;;;11.00;99.90;;;;;;5041347;28;20048;-86
2023/05/15 01:31:44;;;;;;;35.67;29.47;;;10.90;99.90;;;;;;5035637;28;20055;-86
2023/05/15 01:34:12;;;;;;;45.38;31.02;;;10.90;99.90;;;;;;5027051;28;20055;-86
2023/05/15 01:36:54;;;;;;;36.40;30.38;;;10.90;99.90;;;;;;5047286;28;20048;-86
2023/05/15 01:39:22;;;;;;;33.72;29.30;;;10.30;99.90;;;;;;5043435;28;20045;-86
2023/05/15 01:42:04;;;;;;;66.72;32.90;;;10.90;99.90;;;;;;5045208;28;20064;-84
2023/05/15 01:44:32;;;;;;;62.15;33.55;;;10.90;99.90;;;;;;5034893;28;20043;-86
2023/05/15 01:47:05;;;;;;;48.63;33.33;;;10.80;99.90;;;;;;5048504;28;20064;-85
2023/05/15 01:49:32;;;;;;;37.83;33.15;;;10.80;99.90;;;;;;5044360;28;20025;-84
2023/05/15 01:52:07;;;;;;;33.60;30.05;;;10.80;99.90;;;;;;5045834;28;20069;-85
2023/05/15 01:54:35;;;;;;;49.13;32.95;;;10.80;99.90;;;;;;5035564;28;20535;-86
2023/05/15 01:57:01;;;;;;;35.95;31.73;;;10.80;99.90;;;;;;5042812;28;20041;-86
2023/05/15 01:59:30;;;;;;;40.33;29.77;;;10.80;99.90;;;;;;5031476;28;20068;-86
2023/05/15 02:01:57;;;;;;;33.92;30.10;;;10.80;99.90;;;;;;5042469;28;20116;-86
2023/05/15 02:04:23;;;;;;;127.55;37.05;;;10.80;99.90;;;;;;5042556;28;20045;-85
2023/05/15 02:06:50;;;;;;;36.05;30.90;;;10.90;99.90;;;;;;5028803;28;20075;-85
2023/05/15 02:09:16;;;;;;;39.03;32.38;;;10.80;99.90;;;;;;5042557;28;20036;-84
2023/05/15 02:11:42;;;;;;;39.03;30.80;;;10.80;99.90;;;;;;5041849;28;20411;-85
2023/05/15 02:14:10;;;;;;;42.17;34.05;;;10.90;99.90;;;;;;5048343;28;20102;-84
2023/05/15 02:16:35;;;;;;;45.47;32.38;;;10.90;99.90;;;;;;5046315;28;20044;-85
2023/05/15 02:19:01;;;;;;;35.15;29.98;;;10.90;99.90;;;;;;5041651;28;20779;-85
2023/05/15 02:21:26;;;;;;;56.58;34.72;;;10.90;99.90;;;;;;5045275;28;20610;-86
2023/05/15 02:23:52;;;;;;;66.88;35.20;;;10.90;99.90;;;;;;5044102;28;20069;-85
2023/05/15 02:26:39;;;;;;;83.60;33.42;;;10.90;99.90;;;;;;5042471;28;20071;-85
2023/05/15 02:29:27;;;;;;;47.17;32.65;;;10.90;99.90;;;;;;5043529;28;20068;-86
2023/05/15 02:32:18;;;;;;;39.47;32.45;;;10.90;99.90;;;;;;5048328;28;20059;-86
2023/05/15 02:35:10;;;;;;;38.95;33.13;;;10.80;99.90;;;;;;5042671;28;20124;-86
2023/05/15 02:37:40;;;;;;;35.85;31.92;;;10.90;99.90;;;;;;5030874;28;20041;-86
2023/05/15 02:40:10;;;;;;;37.58;31.10;;;10.80;99.90;;;;;;5043105;28;20045;-85
2023/05/15 02:42:36;;;;;;;38.20;30.25;;;10.90;99.90;;;;;;5043027;28;20043;-85
2023/05/15 02:45:02;;;;;;;41.80;29.08;;;11.00;99.90;;;;;;5040070;28;20037;-85
2023/05/15 02:47:29;;;;;;;34.63;30.15;;;10.90;99.90;;;;;;5042172;28;21407;-84
2023/05/15 02:49:55;;;;;;;43.03;31.20;;;10.80;99.90;;;;;;5042003;28;21705;-84
2023/05/15 02:52:25;;;;;;;67.07;31.73;;;10.90;99.90;;;;;;5043014;28;20127;-84
2023/05/15 02:54:50;;;;;;;38.92;30.65;;;10.90;99.90;;;;;;5043091;28;20487;-84
2023/05/15 02:57:16;;;;;;;46.90;32.60;;;10.90;99.90;;;;;;5041974;28;20041;-85
2023/05/15 02:59:42;;;;;;;39.75;31.67;;;10.90;99.90;;;;;;5041663;28;20441;-85
2023/05/15 03:02:07;;;;;;;67.63;32.25;;;11.00;99.90;;;;;;5041956;28;20099;-84
2023/05/15 03:04:33;;;;;;;75.75;33.13;;;10.90;99.90;;;;;;5042793;28;20440;-84
2023/05/15 03:06:58;;;;;;;287.50;40.53;;;10.80;99.90;;;;;;5042913;28;20526;-84
2023/05/15 03:09:24;;;;;;;176.80;34.97;;;10.70;99.90;;;;;;5040033;28;20068;-85
2023/05/15 03:11:50;;;;;;;83.03;34.10;;;10.70;99.90;;;;;;5040727;28;20049;-85
2023/05/15 03:14:16;;;;;;;79.35;29.52;;;10.70;99.90;;;;;;5039271;28;20041;-83
2023/05/15 03:16:41;;;;;;;113.93;31.05;;;10.60;99.90;;;;;;5036992;28;20048;-84
2023/05/15 03:19:07;;;;;;;41.78;28.58;;;10.60;99.90;;;;;;5041089;28;20102;-85
2023/05/15 03:21:33;;;;;;;45.85;29.45;;;10.60;99.90;;;;;;5044201;28;20040;-85
2023/05/15 03:23:59;;;;;;;34.85;27.90;;;10.60;99.90;;;;;;5048121;28;20124;-85
2023/05/15 03:26:25;;;;;;;38.83;27.20;;;10.60;99.90;;;;;;5043052;28;20029;-84
2023/05/15 03:28:51;;;;;;;28.23;25.17;;;10.60;99.90;;;;;;5023854;28;20098;-84
2023/05/15 03:31:17;;;;;;;30.15;26.45;;;10.60;99.90;;;;;;5035359;28;20403;-86
2023/05/15 03:33:44;;;;;;;33.97;27.58;;;10.60;99.90;;;;;;5038643;28;20041;-86
2023/05/15 03:36:10;;;;;;;44.10;27.20;;;10.60;99.90;;;;;;5040299;28;20049;-85
2023/05/15 03:38:36;;;;;;;37.25;28.77;;;10.60;99.90;;;;;;5040594;28;20109;-86
2023/05/15 03:41:01;;;;;;;36.58;28.27;;;10.60;99.90;;;;;;5044223;28;20135;-85
2023/05/15 03:43:27;;;;;;;45.22;29.42;;;10.50;99.90;;;;;;5041807;28;20041;-84
2023/05/15 03:45:52;;;;;;;36.33;28.83;;;10.50;99.90;;;;;;5041191;28;20037;-86
2023/05/15 03:48:18;;;;;;;36.47;28.52;;;10.40;99.90;;;;;;5025737;28;20033;-85
2023/05/15 03:50:45;;;;;;;40.45;29.88;;;10.90;99.90;;;;;;5043860;28;20385;-85
2023/05/15 03:53:11;;;;;;;39.40;29.92;;;10.40;99.90;;;;;;5042382;28;20078;-86
2023/05/15 03:55:36;;;;;;;38.72;30.02;;;10.40;99.90;;;;;;5043266;28;20076;-85
2023/05/15 03:58:02;;;;;;;43.25;30.20;;;10.40;99.90;;;;;;5039944;28;20037;-85
2023/05/15 04:00:28;;;;;;;33.50;28.65;;;10.30;99.90;;;;;;5042055;28;20045;-85
2023/05/15 04:02:53;;;;;;;35.05;28.20;;;10.40;99.90;;;;;;5027558;28;20063;-84
2023/05/15 04:05:20;;;;;;;34.60;27.95;;;10.30;99.90;;;;;;5040057;28;20127;-85
2023/05/15 04:07:46;;;;;;;34.28;28.60;;;10.30;99.90;;;;;;5042017;28;20045;-85
2023/05/15 04:10:11;;;;;;;33.60;26.52;;;10.30;99.90;;;;;;5041796;28;20055;-86
2023/05/15 04:12:37;;;;;;;30.73;26.10;;;9.80;99.90;;;;;;5041882;28;20102;-85
2023/05/15 04:15:14;;;;;;;31.48;26.05;;;10.30;99.90;;;;;;5038940;28;20475;-84
2023/05/15 04:17:40;;;;;;;30.77;24.67;;;10.30;99.90;;;;;;5039248;28;20131;-86
2023/05/15 04:20:06;;;;;;;31.15;25.80;;;10.30;99.90;;;;;;5039434;28;20120;-87
2023/05/15 04:22:32;;;;;;;30.48;25.55;;;10.30;99.90;;;;;;5044845;28;20047;-86
2023/05/15 04:24:57;;;;;;;31.30;24.70;;;10.30;99.90;;;;;;5043855;28;20124;-84
2023/05/15 04:27:23;;;;;;;29.35;24.65;;;10.30;99.90;;;;;;5041271;28;20407;-85
2023/05/15 04:29:48;;;;;;;29.98;25.00;;;10.30;99.90;;;;;;5041852;28;20042;-87
2023/05/15 04:32:14;;;;;;;31.00;26.55;;;10.20;99.90;;;;;;5042804;28;20060;-86
2023/05/15 04:34:41;;;;;;;29.25;23.63;;;10.20;99.90;;;;;;5038110;28;20056;-86
2023/05/15 04:37:06;;;;;;;29.88;24.27;;;10.30;99.90;;;;;;5039343;28;20049;-84
2023/05/15 04:39:32;;;;;;;28.40;23.63;;;10.20;99.90;;;;;;5037848;28;20047;-84
2023/05/15 04:41:57;;;;;;;27.52;23.73;;;10.20;99.90;;;;;;5030121;28;20041;-85
2023/05/15 04:44:23;;;;;;;31.05;25.95;;;10.20;99.90;;;;;;5039295;28;20045;-86
2023/05/15 04:46:49;;;;;;;27.15;24.27;;;10.20;99.90;;;;;;5041200;28;20041;-84
2023/05/15 04:49:15;;;;;;;29.65;26.02;;;10.20;99.90;;;;;;5023426;28;20037;-85
2023/05/15 04:51:40;;;;;;;28.77;25.50;;;10.10;99.90;;;;;;5042384;28;20045;-84
2023/05/15 04:54:06;;;;;;;32.25;25.98;;;10.10;99.90;;;;;;5043578;28;20376;-86
2023/05/15 04:56:32;;;;;;;32.08;28.23;;;10.00;99.90;;;;;;5050514;28;20377;-85
2023/05/15 04:58:58;;;;;;;30.60;27.27;;;10.00;99.90;;;;;;5048153;28;20036;-86
2023/05/15 05:02:04;;;;;;;29.95;26.83;;;10.10;99.90;;;;;;5046040;28;20106;-86
2023/05/15 05:04:45;;;;;;;29.42;26.33;;;10.10;99.90;;;;;;5043850;28;20049;-85
2023/05/15 05:07:10;;;;;;;30.70;27.08;;;10.20;99.90;;;;;;5024210;28;20090;-86
2023/05/15 05:09:38;;;;;;;29.75;26.30;;;10.10;99.90;;;;;;5030577;28;20063;-85
2023/05/15 05:12:05;;;;;;;28.40;25.35;;;10.20;99.90;;;;;;5048448;28;20124;-84
2023/05/15 05:14:31;;;;;;;28.80;24.77;;;10.30;99.90;;;;;;5050898;28;20040;-85
2023/05/15 05:16:57;;;;;;;28.48;25.60;;;10.30;99.90;;;;;;5035618;28;20089;-87
2023/05/15 05:19:22;;;;;;;27.00;24.20;;;10.30;99.90;;;;;;5045345;28;20049;-85
2023/05/15 05:21:48;;;;;;;28.35;25.42;;;10.40;99.90;;;;;;5040912;28;20049;-81
2023/05/15 05:24:15;;;;;;;29.63;25.40;;;10.40;99.90;;;;;;5042457;28;20037;-84
2023/05/15 05:26:43;;;;;;;27.48;24.67;;;10.50;99.90;;;;;;5025823;28;20147;-84
2023/05/15 05:29:08;;;;;;;26.98;24.13;;;10.50;99.90;;;;;;5047558;28;20037;-83
2023/05/15 05:31:34;;;;;;;26.48;23.88;;;10.50;99.90;;;;;;5042964;28;20047;-85
2023/05/15 05:33:59;;;;;;;27.52;24.80;;;10.60;99.90;;;;;;5048079;28;20029;-85
2023/05/15 05:36:25;;;;;;;27.17;24.27;;;10.70;99.90;;;;;;5059557;28;20096;-85
2023/05/15 05:38:51;;;;;;;27.80;24.80;;;10.70;99.90;;;;;;5053253;28;20040;-85
2023/05/15 05:41:16;;;;;;;26.50;23.15;;;10.70;99.90;;;;;;5054086;28;20068;-85
2023/05/15 05:43:42;;;;;;;26.85;24.10;;;10.80;99.90;;;;;;5058494;28;20033;-84
2023/05/15 05:46:08;;;;;;;26.92;22.83;;;10.80;99.90;;;;;;5053606;28;20061;-85
2023/05/15 05:48:33;;;;;;;24.88;22.23;;;10.90;99.90;;;;;;5050898;28;20054;-84
2023/05/15 05:50:59;;;;;;;25.50;22.77;;;10.90;99.90;;;;;;5056711;28;20049;-84
2023/05/15 05:53:24;;;;;;;23.83;21.63;;;11.30;99.90;;;;;;5055237;28;20061;-85
2023/05/15 05:55:50;;;;;;;27.05;23.83;;;11.10;99.90;;;;;;5048363;28;20094;-85
2023/05/15 05:58:17;;;;;;;25.27;22.55;;;11.20;99.90;;;;;;5052122;28;20489;-85
2023/05/15 06:00:43;;;;;;;25.95;23.40;;;11.30;99.90;;;;;;5051537;28;20041;-85
2023/05/15 06:03:09;;;;;;;21.98;20.05;;;11.50;99.90;;;;;;5054385;28;20043;-85
2023/05/15 06:05:34;;;;;;;21.50;18.75;;;11.90;99.90;;;;;;5054288;28;20033;-84
2023/05/15 06:08:02;;;;;;;20.05;18.25;;;12.40;99.90;;;;;;5054958;28;20071;-85
2023/05/15 06:10:28;;;;;;;20.35;18.35;;;13.00;99.90;;;;;;5055373;28;20072;-85
2023/05/15 06:12:54;;;;;;;19.63;17.77;;;13.50;99.90;;;;;;5052464;28;20052;-85
2023/05/15 06:15:19;;;;;;;18.08;16.40;;;13.80;99.90;;;;;;5044924;28;20063;-84
2023/05/15 06:17:45;;;;;;;17.25;15.70;;;14.20;99.90;;;;;;5047002;28;20702;-85
2023/05/15 06:20:11;;;;;;;17.15;15.65;;;14.60;99.90;;;;;;5052743;28;20048;-83
2023/05/15 06:22:36;;;;;;;17.98;16.38;;;14.90;99.90;;;;;;5054343;28;20037;-85
2023/05/15 06:25:04;;;;;;;17.63;16.13;;;15.50;99.90;;;;;;5048873;28;20039;-85
2023/05/15 06:27:29;;;;;;;15.82;14.45;;;16.00;99.90;;;;;;5056226;28;20041;-84
2023/05/15 06:29:55;;;;;;;16.95;15.00;;;16.20;99.90;;;;;;5038711;28;20033;-85
2023/05/15 06:32:21;;;;;;;15.25;13.63;;;17.20;99.90;;;;;;5048850;28;20096;-84
2023/05/15 06:34:46;;;;;;;15.25;13.85;;;16.90;99.90;;;;;;5047556;28;20044;-83
2023/05/15 06:37:12;;;;;;;14.88;13.48;;;17.30;99.90;;;;;;5056584;28;20032;-84
2023/05/15 06:39:38;;;;;;;13.82;12.65;;;17.60;99.90;;;;;;5034816;28;20094;-86
2023/05/15 06:42:04;;;;;;;14.38;12.95;;;17.80;99.90;;;;;;5037537;28;20042;-85
2023/05/15 06:44:30;;;;;;;14.25;13.07;;;17.90;99.90;;;;;;5048715;28;20044;-84
2023/05/15 06:46:56;;;;;;;14.45;12.52;;;17.90;99.90;;;;;;5054769;28;20531;-84
2023/05/15 06:49:23;;;;;;;12.90;11.85;;;17.70;99.90;;;;;;5057712;28;20036;-84
2023/05/15 06:52:19;;;;;;;13.80;12.70;;;17.60;99.90;;;;;;5054192;28;20270;-86
2023/05/15 06:54:45;;;;;;;13.77;12.50;;;17.00;99.90;;;;;;5040079;28;20041;-86
2023/05/15 06:57:11;;;;;;;13.80;12.50;;;16.80;99.90;;;;;;5046951;28;20066;-86
2023/05/15 06:59:37;;;;;;;13.45;12.25;;;16.80;99.90;;;;;;5060112;28;20053;-85
2023/05/15 07:02:03;;;;;;;12.95;11.85;;;16.80;99.90;;;;;;5058974;28;20101;-85
2023/05/15 07:04:29;;;;;;;13.63;12.40;;;17.00;99.90;;;;;;5049838;28;20114;-85
2023/05/15 07:06:55;;;;;;;12.95;11.75;;;17.10;99.90;;;;;;5057841;28;20025;-85
2023/05/15 07:09:21;;;;;;;13.60;12.32;;;17.30;99.90;;;;;;5042048;28;20380;-86
2023/05/15 11:09:31;;;;;;;9.10;8.30;;;22.40;99.90;;;;;;5047166;28;20052;-87
2023/05/15 11:11:59;;;;;;;9.55;8.73;;;22.20;99.90;;;;;;5042854;28;20057;-88
2023/05/15 11:14:29;;;;;;;11.20;10.10;;;21.90;99.90;;;;;;5054870;28;20044;-86
2023/05/15 11:16:56;;;;;;;9.45;8.55;;;21.90;99.90;;;;;;5048296;28;20131;-87
2023/05/15 11:19:28;;;;;;;9.88;7.95;;;21.60;99.90;;;;;;5055656;28;20044;-85
2023/05/15 11:21:57;;;;;;;12.20;8.38;;;21.50;99.90;;;;;;5052364;28;20045;-87
2023/05/15 11:24:31;;;;;;;9.30;8.43;;;21.60;99.90;;;;;;5071156;28;20380;-85
2023/05/15 11:27:03;;;;;;;8.65;7.78;;;21.70;99.90;;;;;;5040777;28;20047;-86
2023/05/15 11:29:30;;;;;;;8.40;6.20;;;21.90;99.90;;;;;;5042609;28;20638;-85
2023/05/15 11:31:56;;;;;;;11.73;7.65;;;22.00;99.90;;;;;;5048506;28;20874;-85
2023/05/15 11:34:48;;;;;;;8.05;7.35;;;21.90;99.90;;;;;;5044206;28;20045;-84
2023/05/15 11:37:17;;;;;;;8.40;6.88;;;21.80;99.90;;;;;;5044226;28;20048;-85
2023/05/15 11:39:43;;;;;;;9.00;7.72;;;21.80;99.90;;;;;;5060494;28;20504;-87
2023/05/15 11:42:12;;;;;;;13.75;7.90;;;21.90;99.90;;;;;;5048503;28;20044;-83
2023/05/15 11:44:38;;;;;;;8.02;7.05;;;21.80;99.90;;;;;;5048866;28;20045;-86
2023/05/15 11:47:09;;;;;;;9.00;7.55;;;21.90;99.90;;;;;;5059886;28;20480;-87
2023/05/15 11:49:35;;;;;;;7.60;6.90;;;22.00;99.90;;;;;;5050087;28;20107;-86
2023/05/15 11:52:02;;;;;;;7.90;7.20;;;22.00;99.90;;;;;;5054593;28;20042;-87
2023/05/15 11:54:28;;;;;;;7.95;6.35;;;22.10;99.90;;;;;;5044193;28;20084;-86
2023/05/15 11:56:56;;;;;;;7.78;6.05;;;21.80;99.90;;;;;;5045685;28;20056;-87
2023/05/15 11:59:25;;;;;;;9.15;6.28;;;22.50;99.90;;;;;;5054547;28;20052;-87
2023/05/15 12:01:51;;;;;;;8.02;5.72;;;22.10;99.90;;;;;;5056229;28;20040;-88
2023/05/15 12:04:18;;;;;;;9.07;7.05;;;22.10;99.90;;;;;;5051603;28;20564;-87
2023/05/15 12:06:46;;;;;;;7.90;7.10;;;22.30;99.90;;;;;;5052182;28;20045;-86
2023/05/15 12:09:18;;;;;;;7.78;7.00;;;22.90;99.90;;;;;;5036651;28;20041;-87
2023/05/15 12:11:51;;;;;;;9.65;7.05;;;22.60;99.90;;;;;;5039543;28;20061;-86
2023/05/15 12:14:16;;;;;;;7.55;6.85;;;22.60;99.90;;;;;;5056607;28;20039;-87
2023/05/15 12:16:42;;;;;;;7.57;6.78;;;22.70;99.90;;;;;;5047909;28;20706;-87
2023/05/15 12:19:08;;;;;;;7.72;6.97;;;22.90;99.90;;;;;;5049898;28;20044;-85
2023/05/15 12:21:34;;;;;;;7.43;6.43;;;22.90;99.90;;;;;;5037685;28;20117;-86
2023/05/15 12:24:00;;;;;;;8.77;7.07;;;22.80;99.90;;;;;;5051358;28;20124;-85
2023/05/15 12:26:28;;;;;;;6.65;5.95;;;22.70;99.90;;;;;;5053945;28;20067;-84
2023/05/15 12:28:55;;;;;;;8.75;6.53;;;22.50;99.90;;;;;;5030214;28;20129;-85
2023/05/15 12:31:20;;;;;;;8.75;7.88;;;22.50;99.90;;;;;;5046278;28;20467;-85
2023/05/15 12:33:46;;;;;;;7.47;6.70;;;22.20;99.90;;;;;;5047681;28;20136;-85
2023/05/15 12:36:12;;;;;;;12.05;6.70;;;21.90;99.90;;;;;;5035765;28;20545;-88
2023/05/15 12:38:38;;;;;;;10.68;7.53;;;21.80;99.90;;;;;;5051996;28;20495;-88
2023/05/15 12:41:04;;;;;;;9.73;7.13;;;21.70;99.90;;;;;;5054085;28;20037;-85
2023/05/15 12:43:30;;;;;;;8.77;6.13;;;21.60;99.90;;;;;;5040399;28;20074;-86
2023/05/15 12:45:56;;;;;;;8.98;6.97;;;21.40;99.90;;;;;;5050725;28;20051;-87
2023/05/15 12:48:22;;;;;;;7.25;6.65;;;21.70;99.90;;;;;;5046162;28;20479;-87
2023/05/15 12:50:48;;;;;;;8.95;7.03;;;21.70;99.90;;;;;;5050156;28;20047;-87
2023/05/15 12:53:15;;;;;;;10.10;7.03;;;21.70;99.90;;;;;;5054714;28;20045;-87
2023/05/15 12:56:03;;;;;;;7.63;6.03;;;21.70;99.90;;;;;;5039847;28;20060;-87
2023/05/15 12:58:29;;;;;;;9.30;6.90;;;21.50;99.90;;;;;;5048688;28;20120;-86
2023/05/15 13:00:55;;;;;;;7.55;6.85;;;21.40;99.90;;;;;;5031101;28;20144;-86
2023/05/15 13:03:39;;;;;;;7.60;6.47;;;21.20;99.90;;;;;;5035315;28;20036;-88
2023/05/15 13:10:51;;;;;;;6.13;5.57;;;20.90;99.90;;;;;;5051531;28;20075;-86
2023/05/15 13:13:17;;;;;;;7.43;5.90;;;20.20;99.90;;;;;;5038256;28;20046;-87
2023/05/15 13:15:43;;;;;;;6.65;6.05;;;20.10;99.90;;;;;;5049247;28;20120;-88
2023/05/15 13:18:16;;;;;;;8.57;7.28;;;19.90;99.90;;;;;;5044686;28;20033;-85
2023/05/15 13:20:50;;;;;;;6.95;6.25;;;19.70;99.90;;;;;;5052117;28;20560;-86
2023/05/15 13:23:17;;;;;;;8.32;6.55;;;19.50;99.90;;;;;;5048043;28;20029;-86
2023/05/15 13:25:43;;;;;;;7.18;6.50;;;19.30;99.90;;;;;;5047395;28;20136;-85
2023/05/15 13:28:10;;;;;;;7.70;6.82;;;19.30;99.90;;;;;;5041810;28;20121;-85
2023/05/15 13:30:40;;;;;;;6.85;6.20;;;19.20;99.90;;;;;;5048236;28;20033;-85
2023/05/15 13:33:06;;;;;;;7.95;7.05;;;19.10;99.90;;;;;;5048491;28;20037;-85
2023/05/15 13:35:31;;;;;;;10.88;8.10;;;19.00;99.90;;;;;;5053338;28;20109;-86
2023/05/15 13:37:57;;;;;;;10.00;7.38;;;19.00;99.90;;;;;;5048835;28;20562;-86
2023/05/15 13:40:22;;;;;;;7.82;6.75;;;18.90;99.90;;;;;;5052969;28;20116;-86
2023/05/15 13:42:49;;;;;;;7.25;6.28;;;18.80;99.90;;;;;;5052094;28;20047;-85
2023/05/15 13:45:15;;;;;;;7.15;6.20;;;18.80;99.90;;;;;;5033424;28;20149;-85
2023/05/15 13:47:41;;;;;;;8.88;6.68;;;18.60;99.90;;;;;;5046852;28;20040;-84
2023/05/15 13:50:09;;;;;;;7.15;5.57;;;18.60;99.90;;;;;;5046092;28;20037;-84
2023/05/15 13:52:37;;;;;;;8.07;5.72;;;18.60;99.90;;;;;;5043909;28;20040;-84
2023/05/15 13:55:03;;;;;;;8.75;5.40;;;18.60;99.90;;;;;;5040274;28;20037;-83
2023/05/15 13:57:30;;;;;;;11.93;5.60;;;18.50;99.90;;;;;;5036434;28;20065;-84
2023/05/15 13:59:55;;;;;;;6.25;5.75;;;18.50;99.90;;;;;;5037316;28;20052;-84
2023/05/15 14:02:25;;;;;;;8.80;5.88;;;18.50;99.90;;;;;;5040463;28;20038;-85
2023/05/15 14:04:51;;;;;;;9.85;6.05;;;18.50;99.90;;;;;;5046556;28;20048;-84
2023/05/15 14:07:16;;;;;;;6.18;5.55;;;18.40;99.90;;;;;;5038270;28;20037;-84
2023/05/15 14:09:42;;;;;;;7.63;4.97;;;18.40;99.90;;;;;;5043088;28;20102;-84
2023/05/15 14:12:08;;;;;;;7.95;5.13;;;18.40;99.90;;;;;;5041989;28;20049;-86
2023/05/15 14:14:39;;;;;;;7.45;5.55;;;18.40;99.90;;;;;;5047066;28;20091;-87
2023/05/15 14:17:24;;;;;;;7.63;5.57;;;18.40;99.90;;;;;;5044711;28;20045;-87
2023/05/15 14:19:51;;;;;;;10.95;5.43;;;18.40;99.90;;;;;;5031903;28;20636;-88
2023/05/15 14:22:17;;;;;;;6.43;5.88;;;18.40;99.90;;;;;;5039413;28;20391;-87
2023/05/15 14:24:42;;;;;;;6.80;6.10;;;18.30;99.90;;;;;;5042460;28;20045;-86
2023/05/15 14:27:08;;;;;;;8.10;5.80;;;18.30;99.90;;;;;;5042909;28;20064;-88
2023/05/15 14:29:34;;;;;;;6.38;5.45;;;18.20;99.90;;;;;;5033630;28;20381;-87
2023/05/15 14:32:00;;;;;;;7.03;5.57;;;18.20;99.90;;;;;;5047522;28;20037;-87
2023/05/15 14:34:26;;;;;;;6.63;5.97;;;18.20;99.90;;;;;;5049982;28;20450;-88
2023/05/15 14:36:55;;;;;;;7.00;5.50;;;18.30;99.90;;;;;;5052629;28;20188;-89
2023/05/15 14:39:22;;;;;;;6.45;5.85;;;18.40;99.90;;;;;;5050549;28;20558;-88
2023/05/15 14:41:48;;;;;;;7.65;6.95;;;18.30;99.90;;;;;;5049361;28;20090;-88
2023/05/15 14:44:14;;;;;;;7.97;6.78;;;18.30;99.90;;;;;;5050122;28;20050;-88
2023/05/15 14:46:43;;;;;;;7.93;7.28;;;18.30;99.90;;;;;;5047594;28;20136;-88
2023/05/15 14:49:22;;;;;;;8.07;7.07;;;19.00;99.90;;;;;;5055180;28;20474;-87
2023/05/15 14:51:48;;;;;;;8.82;8.02;;;18.30;99.90;;;;;;5049024;28;20056;-86
2023/05/15 14:54:14;;;;;;;9.75;8.77;;;18.20;99.90;;;;;;5051993;28;20045;-86
2023/05/15 14:56:39;;;;;;;9.90;8.90;;;18.10;99.90;;;;;;5050356;28;20037;-88
2023/05/15 14:59:06;;;;;;;9.18;8.38;;;18.10;99.90;;;;;;5049556;28;20047;-87
2023/05/15 15:01:31;;;;;;;10.10;9.13;;;17.90;99.90;;;;;;5028144;28;20072;-87
2023/05/15 15:03:57;;;;;;;9.13;8.43;;;18.00;99.90;;;;;;5049540;28;20065;-86
2023/05/15 15:06:22;;;;;;;10.13;9.10;;;17.80;99.90;;;;;;5045562;28;20036;-86
2023/05/15 15:08:49;;;;;;;12.10;9.38;;;17.80;99.90;;;;;;5048143;28;20037;-87
2023/05/15 15:11:15;;;;;;;11.02;10.02;;;17.70;99.90;;;;;;5035521;28;20060;-86
2023/05/15 15:13:40;;;;;;;10.85;8.25;;;17.60;99.90;;;;;;5050497;28;20468;-85
2023/05/15 15:16:06;;;;;;;9.10;8.35;;;17.50;99.90;;;;;;5046358;28;20041;-87
2023/05/15 15:18:32;;;;;;;9.57;8.50;;;17.40;99.90;;;;;;5048517;28;20041;-86
2023/05/15 15:20:57;;;;;;;9.02;8.23;;;17.30;99.90;;;;;;5047625;28;20033;-86
2023/05/15 15:23:23;;;;;;;9.65;8.65;;;17.30;99.90;;;;;;5043606;28;20128;-86
2023/05/15 15:25:49;;;;;;;8.52;7.63;;;17.20;99.90;;;;;;5047369;28;20467;-86
2023/05/15 15:28:14;;;;;;;8.50;7.68;;;17.20;99.90;;;;;;5047659;28;20279;-87
2023/05/15 15:30:42;;;;;;;9.10;8.20;;;17.10;99.90;;;;;;5033430;28;20072;-85
2023/05/15 15:33:08;;;;;;;9.73;8.15;;;17.20;99.90;;;;;;5046425;28;20037;-87
2023/05/15 15:35:33;;;;;;;8.70;7.90;;;17.00;99.90;;;;;;5049347;28;20564;-86
2023/05/15 15:37:59;;;;;;;7.93;7.30;;;16.90;99.90;;;;;;5044491;28;20032;-84
2023/05/15 15:40:25;;;;;;;10.70;8.13;;;16.90;99.90;;;;;;5051697;28;20102;-85
2023/05/15 15:42:50;;;;;;;7.82;7.13;;;16.80;99.90;;;;;;5051621;28;20087;-85
2023/05/15 15:45:19;;;;;;;7.50;6.80;;;16.80;99.90;;;;;;5039788;28;20117;-86
2023/05/15 15:47:44;;;;;;;7.13;6.53;;;17.10;99.90;;;;;;5032580;28;20038;-85
2023/05/15 15:50:10;;;;;;;7.68;6.97;;;16.70;99.90;;;;;;5030781;28;20041;-84
2023/05/15 15:52:36;;;;;;;6.88;6.28;;;16.60;99.90;;;;;;5050475;28;20041;-84
2023/05/15 15:55:01;;;;;;;8.38;7.43;;;16.50;99.90;;;;;;5048482;28;20120;-84
2023/05/15 15:57:28;;;;;;;7.57;6.93;;;16.40;99.90;;;;;;5050352;28;20037;-85
2023/05/15 15:59:54;;;;;;;7.95;7.25;;;16.30;99.90;;;;;;5044793;28;20052;-84
2023/05/15 16:02:20;;;;;;;8.05;7.32;;;16.30;99.90;;;;;;5048886;28;20092;-85
2023/05/15 16:04:45;;;;;;;7.28;6.57;;;16.30;99.90;;;;;;5045232;28;20033;-85
2023/05/15 16:07:11;;;;;;;7.95;6.68;;;16.30;99.90;;;;;;5047824;28;20068;-85
2023/05/15 16:09:37;;;;;;;6.82;6.15;;;16.30;99.90;;;;;;5050910;28;20037;-86
2023/05/15 16:12:02;;;;;;;7.15;6.45;;;16.30;99.90;;;;;;5032983;28;20045;-86
2023/05/15 16:14:30;;;;;;;7.30;6.60;;;16.30;99.90;;;;;;5049643;28;20099;-86
2023/05/15 16:16:56;;;;;;;6.57;5.97;;;16.20;99.90;;;;;;5047309;28;20056;-86
2023/05/15 16:19:21;;;;;;;7.32;6.45;;;16.20;99.90;;;;;;5049691;28;20041;-85
2023/05/15 16:21:47;;;;;;;6.80;6.22;;;16.10;99.90;;;;;;5050497;28;20049;-86
2023/05/15 16:24:13;;;;;;;6.30;5.80;;;16.00;99.90;;;;;;5032410;28;20090;-84
2023/05/15 16:26:39;;;;;;;6.45;5.95;;;16.10;99.90;;;;;;5044480;28;20056;-85
2023/05/15 16:29:05;;;;;;;6.20;5.57;;;16.00;99.90;;;;;;5040899;28;20052;-85
2023/05/15 16:31:30;;;;;;;5.95;5.45;;;15.90;99.90;;;;;;5045045;28;20037;-84
2023/05/15 16:33:58;;;;;;;7.28;5.85;;;15.90;99.90;;;;;;5040811;28;20045;-83
2023/05/15 16:36:23;;;;;;;7.63;6.68;;;15.90;99.90;;;;;;5042087;28;20053;-85
2023/05/15 16:38:49;;;;;;;7.97;6.15;;;15.80;99.90;;;;;;5049483;28;20037;-85
2023/05/15 16:41:15;;;;;;;7.25;6.40;;;15.80;99.90;;;;;;5047434;28;20045;-82